sensor_id;sensor_type;location;lat;lon;timestamp;temperature;humidity
52656;SHT85;35474;51.032;6.998;2023-08-17T00:00:34;20.80;86.00
52656;SHT85;35474;51.032;6.998;2023-08-17T00:03:01;20.75;86.03
52656;SHT85;35474;51.032;6.998;2023-08-17T00:05:28;20.77;85.88
52656;SHT85;35474;51.032;6.998;2023-08-17T00:07:54;20.76;85.91
52656;SHT85;35474;51.032;6.998;2023-08-17T00:10:21;20.75;85.89
52656;SHT85;35474;51.032;6.998;2023-08-17T00:12:47;20.80;85.50
52656;SHT85;35474;51.032;6.998;2023-08-17T00:15:14;20.76;85.83
52656;SHT85;35474;51.032;6.998;2023-08-17T00:17:41;20.83;85.64
52656;SHT85;35474;51.032;6.998;2023-08-17T00:20:08;20.68;85.51
52656;SHT85;35474;51.032;6.998;2023-08-17T00:22:36;20.66;85.46
52656;SHT85;35474;51.032;6.998;2023-08-17T00:25:02;20.58;85.76
52656;SHT85;35474;51.032;6.998;2023-08-17T00:27:33;20.55;85.77
52656;SHT85;35474;51.032;6.998;2023-08-17T00:30:06;20.59;85.81
52656;SHT85;35474;51.032;6.998;2023-08-17T00:32:33;20.68;85.71
52656;SHT85;35474;51.032;6.998;2023-08-17T00:35:00;20.76;85.25
52656;SHT85;35474;51.032;6.998;2023-08-17T00:37:26;20.61;85.37
52656;SHT85;35474;51.032;6.998;2023-08-17T00:39:53;20.48;86.15
52656;SHT85;35474;51.032;6.998;2023-08-17T00:42:20;20.34;85.78
52656;SHT85;35474;51.032;6.998;2023-08-17T00:44:46;20.28;85.99
52656;SHT85;35474;51.032;6.998;2023-08-17T00:47:13;20.38;85.65
52656;SHT85;35474;51.032;6.998;2023-08-17T00:49:40;20.34;85.72
52656;SHT85;35474;51.032;6.998;2023-08-17T00:52:07;20.24;85.56
52656;SHT85;35474;51.032;6.998;2023-08-17T00:54:33;20.17;85.75
52656;SHT85;35474;51.032;6.998;2023-08-17T00:57:00;20.08;85.45
52656;SHT85;35474;51.032;6.998;2023-08-17T00:59:27;20.11;85.82
52656;SHT85;35474;51.032;6.998;2023-08-17T01:02:02;20.05;85.76
52656;SHT85;35474;51.032;6.998;2023-08-17T01:04:29;20.03;85.86
52656;SHT85;35474;51.032;6.998;2023-08-17T01:06:55;19.98;85.84
52656;SHT85;35474;51.032;6.998;2023-08-17T01:09:22;20.07;86.09
52656;SHT85;35474;51.032;6.998;2023-08-17T01:12:00;20.04;85.83
52656;SHT85;35474;51.032;6.998;2023-08-17T01:14:39;19.97;85.67
52656;SHT85;35474;51.032;6.998;2023-08-17T01:17:17;20.22;85.12
52656;SHT85;35474;51.032;6.998;2023-08-17T01:19:49;20.13;85.29
52656;SHT85;35474;51.032;6.998;2023-08-17T01:22:17;20.08;85.39
52656;SHT85;35474;51.032;6.998;2023-08-17T01:24:47;20.04;85.27
52656;SHT85;35474;51.032;6.998;2023-08-17T01:27:13;20.01;85.54
52656;SHT85;35474;51.032;6.998;2023-08-17T01:29:40;20.07;85.02
52656;SHT85;35474;51.032;6.998;2023-08-17T01:32:16;20.11;85.12
52656;SHT85;35474;51.032;6.998;2023-08-17T01:34:50;20.25;84.51
52656;SHT85;35474;51.032;6.998;2023-08-17T01:37:23;20.31;83.80
52656;SHT85;35474;51.032;6.998;2023-08-17T01:39:55;20.29;84.17
52656;SHT85;35474;51.032;6.998;2023-08-17T01:42:23;20.32;83.81
52656;SHT85;35474;51.032;6.998;2023-08-17T01:44:50;20.07;84.22
52656;SHT85;35474;51.032;6.998;2023-08-17T01:47:21;20.17;83.97
52656;SHT85;35474;51.032;6.998;2023-08-17T01:49:49;20.22;83.59
52656;SHT85;35474;51.032;6.998;2023-08-17T01:52:15;20.21;83.69
52656;SHT85;35474;51.032;6.998;2023-08-17T01:54:42;20.22;83.69
52656;SHT85;35474;51.032;6.998;2023-08-17T01:57:09;20.20;83.73
52656;SHT85;35474;51.032;6.998;2023-08-17T01:59:35;20.24;83.76
52656;SHT85;35474;51.032;6.998;2023-08-17T02:02:02;20.11;83.86
52656;SHT85;35474;51.032;6.998;2023-08-17T02:04:29;20.11;84.05
52656;SHT85;35474;51.032;6.998;2023-08-17T02:06:55;20.21;83.42
52656;SHT85;35474;51.032;6.998;2023-08-17T02:09:22;20.24;83.37
52656;SHT85;35474;51.032;6.998;2023-08-17T02:11:51;20.24;83.40
52656;SHT85;35474;51.032;6.998;2023-08-17T02:14:18;20.25;83.14
52656;SHT85;35474;51.032;6.998;2023-08-17T02:16:44;20.25;83.19
52656;SHT85;35474;51.032;6.998;2023-08-17T02:19:11;20.28;83.09
52656;SHT85;35474;51.032;6.998;2023-08-17T02:21:38;20.21;83.03
52656;SHT85;35474;51.032;6.998;2023-08-17T02:24:04;20.18;83.24
52656;SHT85;35474;51.032;6.998;2023-08-17T02:26:31;20.05;83.42
52656;SHT85;35474;51.032;6.998;2023-08-17T02:28:58;20.21;83.32
52656;SHT85;35474;51.032;6.998;2023-08-17T02:31:24;20.25;83.02
52656;SHT85;35474;51.032;6.998;2023-08-17T02:33:51;20.35;83.28
52656;SHT85;35474;51.032;6.998;2023-08-17T02:36:18;20.56;82.47
52656;SHT85;35474;51.032;6.998;2023-08-17T02:38:44;20.48;82.44
52656;SHT85;35474;51.032;6.998;2023-08-17T02:41:11;20.44;82.28
52656;SHT85;35474;51.032;6.998;2023-08-17T02:43:38;20.32;82.74
52656;SHT85;35474;51.032;6.998;2023-08-17T02:46:04;20.20;83.06
52656;SHT85;35474;51.032;6.998;2023-08-17T02:48:33;20.26;82.68
52656;SHT85;35474;51.032;6.998;2023-08-17T02:51:00;20.24;83.11
52656;SHT85;35474;51.032;6.998;2023-08-17T02:53:27;20.25;83.28
52656;SHT85;35474;51.032;6.998;2023-08-17T02:55:53;20.59;82.08
52656;SHT85;35474;51.032;6.998;2023-08-17T02:58:20;20.62;81.61
52656;SHT85;35474;51.032;6.998;2023-08-17T03:00:46;20.69;81.20
52656;SHT85;35474;51.032;6.998;2023-08-17T03:03:13;20.55;82.18
52656;SHT85;35474;51.032;6.998;2023-08-17T03:05:40;20.73;81.11
52656;SHT85;35474;51.032;6.998;2023-08-17T03:08:06;20.80;80.70
52656;SHT85;35474;51.032;6.998;2023-08-17T03:10:33;20.66;81.00
52656;SHT85;35474;51.032;6.998;2023-08-17T03:13:00;20.66;81.44
52656;SHT85;35474;51.032;6.998;2023-08-17T03:15:26;20.48;82.24
52656;SHT85;35474;51.032;6.998;2023-08-17T03:17:53;20.31;83.08
52656;SHT85;35474;51.032;6.998;2023-08-17T03:20:20;20.22;83.61
52656;SHT85;35474;51.032;6.998;2023-08-17T03:22:46;20.17;83.77
52656;SHT85;35474;51.032;6.998;2023-08-17T03:25:13;20.14;83.79
52656;SHT85;35474;51.032;6.998;2023-08-17T03:27:40;20.10;83.87
52656;SHT85;35474;51.032;6.998;2023-08-17T03:30:06;20.14;83.49
52656;SHT85;35474;51.032;6.998;2023-08-17T03:32:33;20.04;83.66
52656;SHT85;35474;51.032;6.998;2023-08-17T03:35:00;19.91;83.91
52656;SHT85;35474;51.032;6.998;2023-08-17T03:37:29;19.87;84.28
52656;SHT85;35474;51.032;6.998;2023-08-17T03:39:56;19.90;84.32
52656;SHT85;35474;51.032;6.998;2023-08-17T03:42:22;19.95;84.31
52656;SHT85;35474;51.032;6.998;2023-08-17T03:44:49;20.11;84.04
52656;SHT85;35474;51.032;6.998;2023-08-17T03:47:17;20.04;84.01
52656;SHT85;35474;51.032;6.998;2023-08-17T03:49:43;20.07;83.79
52656;SHT85;35474;51.032;6.998;2023-08-17T03:52:10;20.14;83.65
52656;SHT85;35474;51.032;6.998;2023-08-17T03:54:37;20.13;83.76
52656;SHT85;35474;51.032;6.998;2023-08-17T03:57:04;20.14;83.83
52656;SHT85;35474;51.032;6.998;2023-08-17T03:59:30;20.07;83.82
52656;SHT85;35474;51.032;6.998;2023-08-17T04:01:57;20.07;84.13
52656;SHT85;35474;51.032;6.998;2023-08-17T04:04:24;20.17;83.67
52656;SHT85;35474;51.032;6.998;2023-08-17T04:06:50;20.28;83.35
52656;SHT85;35474;51.032;6.998;2023-08-17T04:09:17;20.15;83.88
52656;SHT85;35474;51.032;6.998;2023-08-17T04:11:44;20.07;84.01
52656;SHT85;35474;51.032;6.998;2023-08-17T04:14:11;19.91;84.30
52656;SHT85;35474;51.032;6.998;2023-08-17T04:16:38;19.87;84.53
52656;SHT85;35474;51.032;6.998;2023-08-17T04:19:05;19.90;84.56
52656;SHT85;35474;51.032;6.998;2023-08-17T04:21:32;20.03;84.55
52656;SHT85;35474;51.032;6.998;2023-08-17T04:23:58;20.00;84.22
52656;SHT85;35474;51.032;6.998;2023-08-17T04:26:25;20.14;84.32
52656;SHT85;35474;51.032;6.998;2023-08-17T04:28:51;20.22;83.57
52656;SHT85;35474;51.032;6.998;2023-08-17T04:31:18;20.15;83.60
52656;SHT85;35474;51.032;6.998;2023-08-17T04:33:45;20.11;83.99
52656;SHT85;35474;51.032;6.998;2023-08-17T04:36:11;20.03;83.55
52656;SHT85;35474;51.032;6.998;2023-08-17T04:38:38;19.85;83.37
52656;SHT85;35474;51.032;6.998;2023-08-17T04:41:04;19.84;83.55
52656;SHT85;35474;51.032;6.998;2023-08-17T04:43:31;20.05;82.64
52656;SHT85;35474;51.032;6.998;2023-08-17T04:45:58;19.95;83.21
52656;SHT85;35474;51.032;6.998;2023-08-17T04:48:24;20.00;82.93
52656;SHT85;35474;51.032;6.998;2023-08-17T04:50:51;19.93;82.96
52656;SHT85;35474;51.032;6.998;2023-08-17T04:53:18;20.05;82.54
52656;SHT85;35474;51.032;6.998;2023-08-17T04:55:44;20.07;82.55
52656;SHT85;35474;51.032;6.998;2023-08-17T04:58:11;19.93;82.87
52656;SHT85;35474;51.032;6.998;2023-08-17T05:00:38;19.90;82.56
52656;SHT85;35474;51.032;6.998;2023-08-17T05:03:04;20.10;82.11
52656;SHT85;35474;51.032;6.998;2023-08-17T05:05:36;20.00;82.24
52656;SHT85;35474;51.032;6.998;2023-08-17T05:08:03;19.98;82.41
52656;SHT85;35474;51.032;6.998;2023-08-17T05:10:30;19.93;82.58
52656;SHT85;35474;51.032;6.998;2023-08-17T05:12:57;20.13;82.29
52656;SHT85;35474;51.032;6.998;2023-08-17T05:15:24;20.14;81.86
52656;SHT85;35474;51.032;6.998;2023-08-17T05:17:50;20.07;82.05
52656;SHT85;35474;51.032;6.998;2023-08-17T05:20:17;20.18;81.76
52656;SHT85;35474;51.032;6.998;2023-08-17T05:22:45;20.15;82.11
52656;SHT85;35474;51.032;6.998;2023-08-17T05:25:12;20.10;82.28
52656;SHT85;35474;51.032;6.998;2023-08-17T05:27:38;19.98;82.14
52656;SHT85;35474;51.032;6.998;2023-08-17T05:30:05;20.18;81.97
52656;SHT85;35474;51.032;6.998;2023-08-17T05:32:32;20.26;81.56
52656;SHT85;35474;51.032;6.998;2023-08-17T05:34:59;20.25;81.75
52656;SHT85;35474;51.032;6.998;2023-08-17T05:37:26;20.21;81.61
52656;SHT85;35474;51.032;6.998;2023-08-17T05:39:53;20.21;81.46
52656;SHT85;35474;51.032;6.998;2023-08-17T05:42:22;20.18;81.61
52656;SHT85;35474;51.032;6.998;2023-08-17T05:44:49;20.24;81.54
52656;SHT85;35474;51.032;6.998;2023-08-17T05:47:15;20.28;81.46
52656;SHT85;35474;51.032;6.998;2023-08-17T05:49:44;20.29;81.54
52656;SHT85;35474;51.032;6.998;2023-08-17T05:52:11;20.36;81.12
52656;SHT85;35474;51.032;6.998;2023-08-17T05:54:38;20.15;81.62
52656;SHT85;35474;51.032;6.998;2023-08-17T05:57:05;20.22;81.64
52656;SHT85;35474;51.032;6.998;2023-08-17T05:59:31;20.32;81.12
52656;SHT85;35474;51.032;6.998;2023-08-17T06:01:58;20.34;81.22
52656;SHT85;35474;51.032;6.998;2023-08-17T06:04:25;20.53;80.74
52656;SHT85;35474;51.032;6.998;2023-08-17T06:06:51;20.55;80.44
52656;SHT85;35474;51.032;6.998;2023-08-17T06:09:18;20.45;80.79
52656;SHT85;35474;51.032;6.998;2023-08-17T06:11:45;20.41;81.07
52656;SHT85;35474;51.032;6.998;2023-08-17T06:14:12;20.56;80.71
52656;SHT85;35474;51.032;6.998;2023-08-17T06:16:38;20.44;80.74
52656;SHT85;35474;51.032;6.998;2023-08-17T06:19:05;20.68;80.55
52656;SHT85;35474;51.032;6.998;2023-08-17T06:21:32;20.76;80.25
52656;SHT85;35474;51.032;6.998;2023-08-17T06:23:58;20.82;79.98
52656;SHT85;35474;51.032;6.998;2023-08-17T06:26:25;21.04;79.35
52656;SHT85;35474;51.032;6.998;2023-08-17T06:28:51;20.86;79.71
52656;SHT85;35474;51.032;6.998;2023-08-17T06:32:34;20.89;79.92
52656;SHT85;35474;51.032;6.998;2023-08-17T06:35:01;20.94;79.63
52656;SHT85;35474;51.032;6.998;2023-08-17T06:37:27;21.02;79.36
52656;SHT85;35474;51.032;6.998;2023-08-17T06:39:54;20.99;79.79
52656;SHT85;35474;51.032;6.998;2023-08-17T06:42:21;21.09;79.42
52656;SHT85;35474;51.032;6.998;2023-08-17T06:44:48;21.06;79.18
52656;SHT85;35474;51.032;6.998;2023-08-17T06:47:14;21.20;78.78
52656;SHT85;35474;51.032;6.998;2023-08-17T06:49:41;21.65;77.50
52656;SHT85;35474;51.032;6.998;2023-08-17T06:52:08;21.52;78.14
52656;SHT85;35474;51.032;6.998;2023-08-17T06:54:35;21.34;78.22
52656;SHT85;35474;51.032;6.998;2023-08-17T06:57:01;21.42;78.00
52656;SHT85;35474;51.032;6.998;2023-08-17T06:59:28;21.40;78.19
52656;SHT85;35474;51.032;6.998;2023-08-17T07:01:56;21.58;77.76
52656;SHT85;35474;51.032;6.998;2023-08-17T07:04:23;21.48;78.03
52656;SHT85;35474;51.032;6.998;2023-08-17T07:06:49;21.65;77.88
52656;SHT85;35474;51.032;6.998;2023-08-17T07:09:16;21.47;78.03
52656;SHT85;35474;51.032;6.998;2023-08-17T07:11:43;21.54;78.19
52656;SHT85;35474;51.032;6.998;2023-08-17T07:14:10;21.44;78.15
52656;SHT85;35474;51.032;6.998;2023-08-17T07:16:36;21.44;78.44
52656;SHT85;35474;51.032;6.998;2023-08-17T07:19:03;21.67;78.04
52656;SHT85;35474;51.032;6.998;2023-08-17T07:21:33;21.42;78.27
52656;SHT85;35474;51.032;6.998;2023-08-17T07:24:04;21.41;78.37
52656;SHT85;35474;51.032;6.998;2023-08-17T07:26:38;21.44;78.44
52656;SHT85;35474;51.032;6.998;2023-08-17T07:29:05;21.71;77.87
52656;SHT85;35474;51.032;6.998;2023-08-17T07:31:32;21.93;77.17
52656;SHT85;35474;51.032;6.998;2023-08-17T07:34:00;21.93;77.12
52656;SHT85;35474;51.032;6.998;2023-08-17T07:36:26;22.30;76.51
52656;SHT85;35474;51.032;6.998;2023-08-17T07:38:53;22.35;75.88
52656;SHT85;35474;51.032;6.998;2023-08-17T07:41:20;22.27;76.09
52656;SHT85;35474;51.032;6.998;2023-08-17T07:43:46;22.15;76.28
52656;SHT85;35474;51.032;6.998;2023-08-17T07:46:13;22.03;76.56
52656;SHT85;35474;51.032;6.998;2023-08-17T07:48:40;21.88;77.13
52656;SHT85;35474;51.032;6.998;2023-08-17T07:51:06;22.06;76.56
52656;SHT85;35474;51.032;6.998;2023-08-17T07:53:33;21.98;76.46
52656;SHT85;35474;51.032;6.998;2023-08-17T07:56:00;21.71;77.16
52656;SHT85;35474;51.032;6.998;2023-08-17T07:58:27;21.42;78.35
52656;SHT85;35474;51.032;6.998;2023-08-17T08:00:53;21.62;78.15
52656;SHT85;35474;51.032;6.998;2023-08-17T08:03:20;21.65;78.40
52656;SHT85;35474;51.032;6.998;2023-08-17T08:05:46;21.54;78.61
52656;SHT85;35474;51.032;6.998;2023-08-17T08:08:13;21.27;79.87
52656;SHT85;35474;51.032;6.998;2023-08-17T08:10:41;21.83;78.74
52656;SHT85;35474;51.032;6.998;2023-08-17T08:13:07;21.95;77.84
52656;SHT85;35474;51.032;6.998;2023-08-17T08:15:34;22.18;77.14
52656;SHT85;35474;51.032;6.998;2023-08-17T08:18:00;22.09;77.00
52656;SHT85;35474;51.032;6.998;2023-08-17T08:20:27;21.65;78.45
52656;SHT85;35474;51.032;6.998;2023-08-17T08:22:54;21.69;78.67
52656;SHT85;35474;51.032;6.998;2023-08-17T08:25:21;22.03;77.89
52656;SHT85;35474;51.032;6.998;2023-08-17T08:27:47;22.22;76.87
52656;SHT85;35474;51.032;6.998;2023-08-17T08:30:14;22.29;76.59
52656;SHT85;35474;51.032;6.998;2023-08-17T08:32:41;22.27;76.77
52656;SHT85;35474;51.032;6.998;2023-08-17T08:35:07;22.03;77.44
52656;SHT85;35474;51.032;6.998;2023-08-17T08:37:34;21.99;78.07
52656;SHT85;35474;51.032;6.998;2023-08-17T08:40:01;22.12;77.71
52656;SHT85;35474;51.032;6.998;2023-08-17T08:42:27;21.98;77.90
52656;SHT85;35474;51.032;6.998;2023-08-17T08:44:54;21.81;78.56
52656;SHT85;35474;51.032;6.998;2023-08-17T08:47:21;21.81;78.68
52656;SHT85;35474;51.032;6.998;2023-08-17T08:52:23;22.32;77.56
52656;SHT85;35474;51.032;6.998;2023-08-17T08:54:59;22.50;76.49
52656;SHT85;35474;51.032;6.998;2023-08-17T08:57:34;22.91;75.34
52656;SHT85;35474;51.032;6.998;2023-08-17T09:00:02;22.66;75.45
52656;SHT85;35474;51.032;6.998;2023-08-17T09:02:30;22.60;75.30
52656;SHT85;35474;51.032;6.998;2023-08-17T09:04:56;22.80;75.44
52656;SHT85;35474;51.032;6.998;2023-08-17T09:07:24;22.83;75.29
52656;SHT85;35474;51.032;6.998;2023-08-17T09:09:55;22.95;74.97
52656;SHT85;35474;51.032;6.998;2023-08-17T09:12:22;23.02;75.25
52656;SHT85;35474;51.032;6.998;2023-08-17T09:15:05;22.88;75.12
52656;SHT85;35474;51.032;6.998;2023-08-17T09:17:32;22.53;76.26
52656;SHT85;35474;51.032;6.998;2023-08-17T09:20:02;22.41;76.58
52656;SHT85;35474;51.032;6.998;2023-08-17T09:25:06;22.76;75.91
52656;SHT85;35474;51.032;6.998;2023-08-17T09:27:33;22.67;76.00
52656;SHT85;35474;51.032;6.998;2023-08-17T09:30:05;22.30;76.94
52656;SHT85;35474;51.032;6.998;2023-08-17T09:32:33;22.33;77.31
52656;SHT85;35474;51.032;6.998;2023-08-17T09:35:04;22.35;77.23
52656;SHT85;35474;51.032;6.998;2023-08-17T09:37:32;22.32;77.56
52656;SHT85;35474;51.032;6.998;2023-08-17T09:40:00;22.46;77.16
52656;SHT85;35474;51.032;6.998;2023-08-17T09:42:27;22.48;77.02
52656;SHT85;35474;51.032;6.998;2023-08-17T09:44:54;22.74;76.55
52656;SHT85;35474;51.032;6.998;2023-08-17T09:47:22;23.12;75.29
52656;SHT85;35474;51.032;6.998;2023-08-17T09:49:49;23.14;74.77
52656;SHT85;35474;51.032;6.998;2023-08-17T09:52:21;22.92;75.63
52656;SHT85;35474;51.032;6.998;2023-08-17T09:54:48;23.08;75.25
52656;SHT85;35474;51.032;6.998;2023-08-17T09:57:15;23.36;74.82
52656;SHT85;35474;51.032;6.998;2023-08-17T09:59:48;23.10;74.75
52656;SHT85;35474;51.032;6.998;2023-08-17T10:02:22;23.14;74.89
52656;SHT85;35474;51.032;6.998;2023-08-17T10:04:51;22.99;75.28
52656;SHT85;35474;51.032;6.998;2023-08-17T10:07:19;23.11;75.23
52656;SHT85;35474;51.032;6.998;2023-08-17T10:09:58;23.28;74.65
52656;SHT85;35474;51.032;6.998;2023-08-17T10:12:29;23.25;74.56
52656;SHT85;35474;51.032;6.998;2023-08-17T10:15:02;22.99;75.23
52656;SHT85;35474;51.032;6.998;2023-08-17T10:17:43;22.80;75.85
52656;SHT85;35474;51.032;6.998;2023-08-17T10:20:19;22.84;76.08
52656;SHT85;35474;51.032;6.998;2023-08-17T10:22:52;22.78;76.27
52656;SHT85;35474;51.032;6.998;2023-08-17T10:25:25;22.88;76.09
52656;SHT85;35474;51.032;6.998;2023-08-17T10:27:53;22.98;75.79
52656;SHT85;35474;51.032;6.998;2023-08-17T10:30:25;23.18;75.57
52656;SHT85;35474;51.032;6.998;2023-08-17T10:32:52;23.16;75.41
52656;SHT85;35474;51.032;6.998;2023-08-17T10:35:19;23.52;74.35
52656;SHT85;35474;51.032;6.998;2023-08-17T10:37:46;23.24;74.95
52656;SHT85;35474;51.032;6.998;2023-08-17T10:40:14;22.97;75.52
52656;SHT85;35474;51.032;6.998;2023-08-17T10:42:41;22.94;75.93
52656;SHT85;35474;51.032;6.998;2023-08-17T10:50:36;23.52;73.98
52656;SHT85;35474;51.032;6.998;2023-08-17T10:53:11;23.38;74.59
52656;SHT85;35474;51.032;6.998;2023-08-17T10:55:40;23.04;75.57
52656;SHT85;35474;51.032;6.998;2023-08-17T10:58:08;22.68;76.31
52656;SHT85;35474;51.032;6.998;2023-08-17T11:00:40;22.73;76.46
52656;SHT85;35474;51.032;6.998;2023-08-17T11:03:09;22.88;75.96
52656;SHT85;35474;51.032;6.998;2023-08-17T11:05:44;22.98;76.13
52656;SHT85;35474;51.032;6.998;2023-08-17T11:08:20;23.14;75.77
52656;SHT85;35474;51.032;6.998;2023-08-17T11:11:11;23.01;75.74
52656;SHT85;35474;51.032;6.998;2023-08-17T11:13:40;23.28;75.15
52656;SHT85;35474;51.032;6.998;2023-08-17T11:16:08;23.39;74.64
52656;SHT85;35474;51.032;6.998;2023-08-17T11:18:36;23.52;74.05
52656;SHT85;35474;51.032;6.998;2023-08-17T11:21:04;23.73;73.76
52656;SHT85;35474;51.032;6.998;2023-08-17T11:23:32;24.11;72.52
52656;SHT85;35474;51.032;6.998;2023-08-17T11:26:01;24.38;71.45
52656;SHT85;35474;51.032;6.998;2023-08-17T11:28:29;23.96;72.73
52656;SHT85;35474;51.032;6.998;2023-08-17T11:31:09;24.07;72.03
52656;SHT85;35474;51.032;6.998;2023-08-17T11:33:38;24.61;70.55
52656;SHT85;35474;51.032;6.998;2023-08-17T11:36:06;25.00;69.53
52656;SHT85;35474;51.032;6.998;2023-08-17T11:38:34;24.68;70.80
52656;SHT85;35474;51.032;6.998;2023-08-17T11:41:05;25.47;68.17
52656;SHT85;35474;51.032;6.998;2023-08-17T11:43:35;24.71;70.17
52656;SHT85;35474;51.032;6.998;2023-08-17T11:46:02;25.13;69.27
52656;SHT85;35474;51.032;6.998;2023-08-17T11:48:30;25.87;67.17
52656;SHT85;35474;51.032;6.998;2023-08-17T11:51:02;26.63;65.31
52656;SHT85;35474;51.032;6.998;2023-08-17T11:53:34;26.45;64.57
52656;SHT85;35474;51.032;6.998;2023-08-17T11:56:01;26.45;65.20
52656;SHT85;35474;51.032;6.998;2023-08-17T11:58:41;26.91;63.75
52656;SHT85;35474;51.032;6.998;2023-08-17T12:01:14;26.53;64.75
52656;SHT85;35474;51.032;6.998;2023-08-17T12:03:44;26.33;65.79
52656;SHT85;35474;51.032;6.998;2023-08-17T12:06:12;26.67;64.63
52656;SHT85;35474;51.032;6.998;2023-08-17T12:08:43;26.08;65.96
52656;SHT85;35474;51.032;6.998;2023-08-17T12:11:13;25.99;66.59
52656;SHT85;35474;51.032;6.998;2023-08-17T12:13:41;25.54;68.03
52656;SHT85;35474;51.032;6.998;2023-08-17T12:16:14;24.79;69.32
52656;SHT85;35474;51.032;6.998;2023-08-17T12:18:43;24.79;70.33
52656;SHT85;35474;51.032;6.998;2023-08-17T12:21:16;25.60;68.45
52656;SHT85;35474;51.032;6.998;2023-08-17T12:23:47;25.66;67.93
52656;SHT85;35474;51.032;6.998;2023-08-17T12:26:23;25.08;69.12
52656;SHT85;35474;51.032;6.998;2023-08-17T12:28:49;25.40;69.23
52656;SHT85;35474;51.032;6.998;2023-08-17T12:31:20;26.14;67.10
52656;SHT85;35474;51.032;6.998;2023-08-17T12:33:49;26.98;64.95
52656;SHT85;35474;51.032;6.998;2023-08-17T12:36:16;26.60;65.47
52656;SHT85;35474;51.032;6.998;2023-08-17T12:38:45;26.60;64.96
52656;SHT85;35474;51.032;6.998;2023-08-17T12:41:14;26.39;65.80
52656;SHT85;35474;51.032;6.998;2023-08-17T12:43:40;26.26;66.11
52656;SHT85;35474;51.032;6.998;2023-08-17T12:46:07;25.60;68.31
52656;SHT85;35474;51.032;6.998;2023-08-17T12:48:33;25.10;69.36
52656;SHT85;35474;51.032;6.998;2023-08-17T12:51:02;24.88;69.86
52656;SHT85;35474;51.032;6.998;2023-08-17T12:53:30;25.43;69.21
52656;SHT85;35474;51.032;6.998;2023-08-17T12:55:58;24.90;69.48
52656;SHT85;35474;51.032;6.998;2023-08-17T12:58:24;24.49;71.51
52656;SHT85;35474;51.032;6.998;2023-08-17T13:00:51;24.32;72.12
52656;SHT85;35474;51.032;6.998;2023-08-17T13:03:20;23.98;72.97
52656;SHT85;35474;51.032;6.998;2023-08-17T13:05:47;24.51;72.24
52656;SHT85;35474;51.032;6.998;2023-08-17T13:08:14;24.71;71.07
52656;SHT85;35474;51.032;6.998;2023-08-17T13:10:40;24.37;70.96
52656;SHT85;35474;51.032;6.998;2023-08-17T13:13:07;23.74;73.37
52656;SHT85;35474;51.032;6.998;2023-08-17T13:15:34;24.10;72.60
52656;SHT85;35474;51.032;6.998;2023-08-17T13:18:02;24.57;71.30
52656;SHT85;35474;51.032;6.998;2023-08-17T13:20:29;24.89;70.53
52656;SHT85;35474;51.032;6.998;2023-08-17T13:22:56;25.29;69.43
52656;SHT85;35474;51.032;6.998;2023-08-17T13:25:22;25.29;69.16
52656;SHT85;35474;51.032;6.998;2023-08-17T13:27:49;25.36;68.93
52656;SHT85;35474;51.032;6.998;2023-08-17T13:30:16;25.36;68.75
52656;SHT85;35474;51.032;6.998;2023-08-17T13:32:43;25.30;68.82
52656;SHT85;35474;51.032;6.998;2023-08-17T13:35:13;25.29;68.80
52656;SHT85;35474;51.032;6.998;2023-08-17T13:37:40;25.33;68.70
52656;SHT85;35474;51.032;6.998;2023-08-17T13:40:07;25.18;68.89
52656;SHT85;35474;51.032;6.998;2023-08-17T13:42:34;25.15;69.13
52656;SHT85;35474;51.032;6.998;2023-08-17T13:45:02;24.96;69.70
52656;SHT85;35474;51.032;6.998;2023-08-17T13:47:29;24.90;69.49
52656;SHT85;35474;51.032;6.998;2023-08-17T13:49:56;24.78;69.83
52656;SHT85;35474;51.032;6.998;2023-08-17T13:52:24;24.69;70.22
52656;SHT85;35474;51.032;6.998;2023-08-17T13:54:51;24.78;70.05
52656;SHT85;35474;51.032;6.998;2023-08-17T13:57:18;25.06;69.46
52656;SHT85;35474;51.032;6.998;2023-08-17T13:59:45;25.20;68.78
52656;SHT85;35474;51.032;6.998;2023-08-17T14:02:11;25.71;67.77
52656;SHT85;35474;51.032;6.998;2023-08-17T14:04:38;25.91;66.66
52656;SHT85;35474;51.032;6.998;2023-08-17T14:07:05;26.14;65.97
52656;SHT85;35474;51.032;6.998;2023-08-17T14:09:31;26.28;64.95
52656;SHT85;35474;51.032;6.998;2023-08-17T14:11:58;26.22;65.77
52656;SHT85;35474;51.032;6.998;2023-08-17T14:14:26;26.69;64.49
52656;SHT85;35474;51.032;6.998;2023-08-17T14:16:53;26.52;64.91
52656;SHT85;35474;51.032;6.998;2023-08-17T14:19:19;26.46;64.62
52656;SHT85;35474;51.032;6.998;2023-08-17T14:21:46;26.36;65.41
52656;SHT85;35474;51.032;6.998;2023-08-17T14:24:13;26.08;65.63
52656;SHT85;35474;51.032;6.998;2023-08-17T14:26:39;26.16;66.16
52656;SHT85;35474;51.032;6.998;2023-08-17T14:29:06;25.87;67.03
52656;SHT85;35474;51.032;6.998;2023-08-17T14:31:33;25.89;66.90
52656;SHT85;35474;51.032;6.998;2023-08-17T14:33:59;25.34;68.83
52656;SHT85;35474;51.032;6.998;2023-08-17T14:36:31;25.64;68.55
52656;SHT85;35474;51.032;6.998;2023-08-17T14:38:58;25.66;68.75
52656;SHT85;35474;51.032;6.998;2023-08-17T14:41:25;25.73;68.51
52656;SHT85;35474;51.032;6.998;2023-08-17T14:44:00;25.43;68.82
52656;SHT85;35474;51.032;6.998;2023-08-17T14:46:28;25.24;68.69
52656;SHT85;35474;51.032;6.998;2023-08-17T14:48:55;25.78;67.74
52656;SHT85;35474;51.032;6.998;2023-08-17T14:51:23;26.88;64.96
52656;SHT85;35474;51.032;6.998;2023-08-17T14:53:56;27.44;63.28
52656;SHT85;35474;51.032;6.998;2023-08-17T14:56:23;27.58;62.95
52656;SHT85;35474;51.032;6.998;2023-08-17T14:58:50;27.78;62.15
52656;SHT85;35474;51.032;6.998;2023-08-17T15:01:16;28.48;60.36
52656;SHT85;35474;51.032;6.998;2023-08-17T15:03:44;28.74;58.75
52656;SHT85;35474;51.032;6.998;2023-08-17T15:06:11;28.54;59.23
52656;SHT85;35474;51.032;6.998;2023-08-17T15:08:57;29.11;58.43
52656;SHT85;35474;51.032;6.998;2023-08-17T15:11:23;29.78;56.65
52656;SHT85;35474;51.032;6.998;2023-08-17T15:13:50;30.17;55.40
52656;SHT85;35474;51.032;6.998;2023-08-17T15:16:17;29.95;55.75
52656;SHT85;35474;51.032;6.998;2023-08-17T15:18:50;29.73;55.98
52656;SHT85;35474;51.032;6.998;2023-08-17T15:21:17;29.86;55.35
52656;SHT85;35474;51.032;6.998;2023-08-17T15:23:44;29.25;56.93
52656;SHT85;35474;51.032;6.998;2023-08-17T15:26:11;29.83;56.00
52656;SHT85;35474;51.032;6.998;2023-08-17T15:28:38;29.37;56.68
52656;SHT85;35474;51.032;6.998;2023-08-17T15:31:06;29.35;57.43
52656;SHT85;35474;51.032;6.998;2023-08-17T15:33:39;29.73;56.50
52656;SHT85;35474;51.032;6.998;2023-08-17T15:36:05;29.76;55.79
52656;SHT85;35474;51.032;6.998;2023-08-17T15:38:32;29.78;55.78
52656;SHT85;35474;51.032;6.998;2023-08-17T15:40:59;29.59;55.67
52656;SHT85;35474;51.032;6.998;2023-08-17T15:43:25;28.64;58.49
52656;SHT85;35474;51.032;6.998;2023-08-17T15:45:52;28.61;59.03